Latest Coastal Weather Observations for Low Rocky Point

IDT60701

Issued at 5:05 pm EDT Saturday 1 November 2014 (issued every 10 minutes, with the page automatically refreshed every 10 minutes)

About coastal observations | Map of coastal stations | Coastal observations for TAS | Marine services | Other Formats
Station Details ID: 097080 Name: LOW ROCKY POINT Lat: -42.98 Lon: 145.50 Height: 34.0 m
Data from the previous 72 hours. | See also: Recent months at Low Rocky Point
Date/Time
EDT
Temp

°C
Wind Pressure Rain
since 9am
mm
Weather Cloud Vis
km
Sea
Height
m
Swell
Dir
 
Speed
knots
Gust
knots
hPa Trend Height
m
Period
s
Dir
01/05:00pm 7.2 W 28 46 998.6 - 1.8 - - - - - - -
01/04:57pm 7.9 W 24 42 998.6 - 1.4 - - - - - - -
01/04:37pm 6.6 W 27 33 998.4 - 1.4 - - - - - - -
01/04:30pm 7.4 W 37 50 998.2 - 1.4 - - - - - - -
01/04:26pm 9.1 W 35 48 997.9 - 1.4 - - - - - - -
01/04:14pm 9.1 W 37 41 997.6 - 1.4 - - - - - - -
01/04:10pm 9.0 W 27 37 997.7 - 1.4 - - - - - - -
01/04:00pm 8.7 W 28 35 997.8 - 1.4 - - - - - - -
01/03:38pm 10.6 W 32 44 997.1 - 1.4 - - - - - - -
01/03:30pm 11.0 W 30 38 997.1 - 1.4 - - - - - - -
01/03:00pm 9.7 W 32 38 997.1 - 1.4 - - - - - - -
01/02:42pm 9.6 WNW 29 39 997.0 - 1.4 - - - - - - -
01/02:30pm 8.7 NW 27 34 996.8 - 1.4 - - - - - - -
01/02:28pm 8.4 NW 29 34 996.8 - 1.4 - - - - - - -
01/02:00pm 8.9 W 32 44 996.7 - 1.4 - - - - - - -
01/01:58pm 10.3 W 31 44 996.5 - 1.4 - - - - - - -
01/01:30pm 11.3 W 31 38 996.1 - 1.4 - - - - - - -
01/01:09pm 10.5 W 35 45 995.8 - 1.4 - - - - - - -
01/01:00pm 10.9 W 35 41 995.6 - 1.4 - - - - - - -
01/12:37pm 10.2 W 29 42 995.3 - 1.2 - - - - - - -
01/12:30pm 11.3 W 30 36 995.4 - 1.2 - - - - - - -
01/12:03pm 9.7 W 26 36 995.1 - 1.2 - - - - - - -
01/12:00pm 9.6 W 26 35 995.1 - 1.2 Recent precip. - - - - - -
01/11:53am 8.9 W 32 42 995.1 - 1.2 - - - - - - -
01/11:49am 9.2 W 37 42 995.0 - 1.2 - - - - - - -
01/11:38am 9.4 W 26 36 994.8 - 1.2 - - - - - - -
01/11:30am 9.7 W 31 38 994.7 - 1.0 - - - - - - -
01/11:00am 10.0 W 32 40 994.1 - 1.0 - - - - - - -
01/10:36am 8.8 WNW 28 38 993.9 - 1.0 - - - - - - -
01/10:30am 9.9 W 31 37 993.9 - 0.6 - - - - - - -
01/10:00am 10.8 WNW 27 35 993.4 - 0.6 - - - - - - -
01/09:30am 9.8 WNW 27 37 993.3 - 0.6 - - - - - - -
01/09:00am 10.3 W 24 34 993.4 - 12.6 - - - - - - -
01/08:30am 11.7 WNW 24 29 993.4 - 12.6 - - - - - - -
01/08:00am 11.5 WNW 26 31 993.3 - 12.6 - - - - - - -
01/07:30am 11.2 WNW 27 32 992.9 - 12.6 - - - - - - -
01/07:00am 10.8 WNW 29 34 992.6 - 12.6 - - - - - - -
01/06:30am 10.7 W 28 33 992.2 - 12.6 - - - - - - -
01/06:00am 10.8 W 29 35 991.8 - 12.6 Recent precip. - - - - - -
01/05:30am 10.8 W 29 34 991.3 - 12.6 - - - - - - -
01/05:00am 11.1 WNW 26 31 990.5 - 12.4 - - - - - - -
01/04:30am 10.8 NW 27 43 990.2 - 12.2 - - - - - - -
01/04:25am 11.7 NNW 23 43 989.8 - 11.8 - - - - - - -
01/04:20am 11.7 NNW 22 32 989.4 - 11.0 - - - - - - -
01/04:00am 11.6 NNW 21 30 989.6 - 10.2 - - - - - - -
01/03:31am 12.0 NNW 25 35 990.2 - 9.8 - - - - - - -
01/03:30am 12.0 NNW 26 35 990.1 - 9.8 - - - - - - -
01/03:00am 12.0 NNW 28 35 990.9 - 9.4 Rain - - - - - -
01/02:47am 11.9 NNW 29 39 990.8 - 9.2 - - - - - - -
01/02:30am 12.0 NW 30 38 991.1 - 8.8 - - - - - - -
01/02:24am 12.2 NW 28 38 991.1 - 8.6 - - - - - - -
01/02:00am 12.6 NW 27 34 991.4 - 7.6 - - - - - - -
01/01:30am 13.2 NNW 22 29 991.3 - 5.8 - - - - - - -
01/01:00am 13.4 NNW 23 31 992.1 - 4.4 - - - - - - -
01/12:30am 13.6 NW 30 37 992.5 - 3.8 - - - - - - -
01/12:00am 13.6 NW 28 36 992.3 - 3.8 Recent precip. - - - - - -
 
Date/Time
EDT
Temp

°C
Wind Pressure Rain
since 9am
mm
Weather Cloud Vis
km
Sea
Height
m
Swell
Dir
 
Speed
knots
Gust
knots
hPa Trend Height
m
Period
s
Dir
31/11:30pm 14.0 NW 34 46 991.9 - 3.6 - - - - - - -
31/11:28pm 14.0 NW 34 46 992.1 - 3.6 - - - - - - -
31/11:27pm 14.0 NW 31 38 992.1 - 3.6 - - - - - - -
31/11:22pm 14.3 NW 21 31 992.4 - 3.6 - - - - - - -
31/11:00pm 14.5 NNW 20 27 991.5 - 3.6 - - - - - - -
31/10:36pm 14.4 N 21 31 991.6 - 3.4 - - - - - - -
31/10:30pm 14.4 N 19 26 991.6 - 3.4 - - - - - - -
31/10:00pm 14.5 N 19 27 992.3 - 2.8 - - - - - - -
31/09:48pm 14.5 NNW 19 30 992.3 - 2.6 - - - - - - -
31/09:30pm 14.5 NNW 19 27 992.9 - 2.4 - - - - - - -
31/09:00pm 14.8 N 21 27 992.7 - 2.0 Recent precip. - - - - - -
31/08:32pm 14.7 NNW 24 34 992.8 - 1.8 - - - - - - -
31/08:30pm 14.8 NNW 25 34 992.9 - 1.8 - - - - - - -
31/08:06pm 15.3 NNW 27 37 993.5 - 1.6 - - - - - - -
31/08:00pm 15.5 NNW 29 35 993.7 - 1.6 - - - - - - -
31/07:33pm 18.2 NNW 25 35 993.2 - 1.6 - - - - - - -
31/07:30pm 17.8 NNW 25 31 993.3 - 1.6 - - - - - - -
31/07:00pm 18.1 NNW 20 32 993.5 - 1.6 - - - - - - -
31/06:50pm 18.2 N 20 30 993.4 - 1.6 - - - - - - -
31/06:30pm 18.0 N 19 26 993.4 - 1.6 - - - - - - -
31/06:00pm 17.7 N 19 26 993.8 - 1.6 - - - - - - -
31/05:36pm 17.6 N 19 29 994.0 - 1.6 - - - - - - -
31/05:30pm 17.6 N 19 27 994.0 - 1.6 - - - - - - -
31/05:17pm 17.9 NNW 20 32 994.2 - 1.6 - - - - - - -
31/05:00pm 17.8 N 19 28 994.4 - 1.6 - - - - - - -
31/04:34pm 18.3 N 21 31 994.7 - 1.6 - - - - - - -
31/04:30pm 18.0 N 21 29 994.8 - 1.6 - - - - - - -
31/04:15pm 17.2 N 19 30 995.3 - 1.6 - - - - - - -
31/04:00pm 17.5 N 16 23 995.9 - 1.6 - - - - - - -
31/03:30pm 16.3 N 15 20 997.0 - 1.6 - - - - - - -
31/03:00pm 14.5 N 17 26 998.1 - 1.6 Recent precip. - - - - - -
31/02:30pm 13.9 N 19 27 998.7 - 1.4 - - - - - - -
31/02:00pm 13.2 N 17 24 999.7 - 1.4 - - - - - - -
31/01:30pm 12.8 NNW 16 25 1000.1 - 1.0 - - - - - - -
31/01:00pm 13.4 NNW 17 26 1000.3 - 0.6 - - - - - - -
31/12:40pm 13.1 NNW 17 27 1001.1 - 0.6 - - - - - - -
31/12:30pm 13.2 NNW 19 27 1001.1 - 0.6 - - - - - - -
31/12:00pm 12.7 NNW 20 27 1001.6 - 0.6 - - - - - - -
31/11:35am 12.3 NNW 21 31 1002.1 - 0.6 - - - - - - -
31/11:30am 12.4 NNW 21 28 1002.0 - 0.6 - - - - - - -
31/11:22am 12.3 NNW 17 28 1002.0 - 0.6 - - - - - - -
31/11:00am 11.9 NNW 21 29 1002.5 - 0.6 - - - - - - -
31/10:30am 11.5 NNW 21 28 1003.0 - 0.6 - - - - - - -
31/10:00am 11.4 NNW 18 25 1003.4 - 0.4 - - - - - - -
31/09:30am 12.5 NNW 22 32 1003.4 - 0.0 - - - - - - -
31/09:16am 12.2 NNW 19 29 1003.7 - 0.0 - - - - - - -
31/09:00am 12.3 NNW 17 24 1004.1 - 1.6 - - - - - - -
31/08:37am 12.1 NW 22 32 1004.2 - 1.6 - - - - - - -
31/08:30am 11.8 NW 23 29 1003.9 - 1.6 - - - - - - -
31/08:08am 11.6 NW 26 36 1004.0 - 1.6 - - - - - - -
31/08:00am 11.8 NW 30 36 1004.0 - 1.6 - - - - - - -
31/07:57am 11.6 NNW 31 34 1004.0 - 1.6 - - - - - - -
31/07:51am 11.4 NNW 17 28 1004.2 - 1.6 - - - - - - -
31/07:30am 11.1 NNW 24 30 1004.3 - 1.6 - - - - - - -
31/07:00am 11.4 NNW 26 32 1004.5 - 1.6 - - - - - - -
31/06:30am 11.2 NW 26 31 1004.5 - 1.6 - - - - - - -
31/06:00am 11.6 NW 25 32 1004.6 - 1.4 - - - - - - -
31/05:30am 11.5 NW 23 30 1004.7 - 1.4 - - - - - - -
31/05:00am 11.6 NW 24 33 1005.0 - 1.4 - - - - - - -
31/04:56am 11.7 NW 23 33 1004.9 - 1.4 - - - - - - -
31/04:30am 11.6 NW 23 28 1005.4 - 1.4 - - - - - - -
31/04:00am 11.8 NW 23 28 1005.7 - 1.4 - - - - - - -
31/03:30am 12.0 NW 22 26 1005.9 - 1.2 - - - - - - -
31/03:00am 11.8 NW 22 27 1006.3 - 1.0 Recent precip. - - - - - -
31/02:30am 11.9 NW 23 30 1006.4 - 0.8 - - - - - - -
31/02:00am 11.9 NW 21 27 1006.8 - 0.8 - - - - - - -
31/01:30am 11.9 NW 23 29 1007.3 - 0.6 - - - - - - -
31/01:00am 11.9 NW 23 28 1007.6 - 0.6 - - - - - - -
31/12:30am 12.2 NW 22 28 1007.9 - 0.4 - - - - - - -
31/12:00am 11.9 NW 22 30 1008.0 - 0.4 Rain - - - - - -
 
Date/Time
EDT
Temp

°C
Wind Pressure Rain
since 9am
mm
Weather Cloud Vis
km
Sea
Height
m
Swell
Dir
 
Speed
knots
Gust
knots
hPa Trend Height
m
Period
s
Dir
30/11:30pm 12.2 NW 21 25 1008.1 - 0.2 - - - - - - -
30/11:00pm 12.1 NW 22 27 1008.3 - 0.2 - - - - - - -
30/10:30pm 11.7 NW 21 25 1008.6 - 0.2 - - - - - - -
30/10:00pm 11.6 NW 18 23 1008.9 - 0.2 - - - - - - -
30/09:30pm 11.0 NW 13 17 1009.1 - 0.2 - - - - - - -
30/09:00pm 10.5 NW 14 17 1009.1 - 0.2 - - - - - - -
30/08:30pm 10.6 NW 16 20 1009.2 - 0.2 - - - - - - -
30/08:00pm 10.9 NW 17 21 1009.3 - 0.2 - - - - - - -
30/07:30pm 11.2 NW 17 22 1009.1 - 0.2 - - - - - - -
30/07:00pm 11.5 NW 20 23 1008.9 - 0.2 - - - - - - -
30/06:30pm 11.8 NW 19 23 1008.7 - 0.2 - - - - - - -
30/06:00pm 12.6 NW 18 23 1008.9 - 0.2 - - - - - - -
30/05:30pm 12.7 NW 15 19 1009.0 - 0.2 - - - - - - -
30/05:00pm 12.4 NW 19 23 1009.2 - 0.2 - - - - - - -
30/04:30pm 12.5 NW 18 22 1009.1 - 0.2 - - - - - - -
30/04:00pm 12.6 WNW 17 21 1009.2 - 0.2 - - - - - - -
30/03:30pm 12.8 WNW 18 25 1009.2 - 0.2 - - - - - - -
30/03:00pm 13.3 WNW 19 23 1009.4 - 0.2 - - - - - - -
30/02:30pm 13.3 WNW 19 25 1009.4 - 0.2 - - - - - - -
30/02:00pm 12.4 WNW 19 24 1009.2 - 0.2 - - - - - - -
30/01:30pm 12.2 NW 16 21 1009.3 - 0.2 - - - - - - -
30/01:00pm 12.2 NW 14 17 1009.1 - 0.2 - - - - - - -
30/12:30pm 11.8 WNW 11 13 1009.0 - 0.2 - - - - - - -
30/12:00pm 11.5 WNW 15 19 1009.4 - 0.0 - - - - - - -
30/11:30am 12.3 NW 14 16 1009.3 - 0.0 - - - - - - -
30/11:00am 11.9 NW 12 16 1009.6 - 0.0 - - - - - - -
30/10:30am 10.6 WNW 13 16 1009.8 - 0.0 - - - - - - -
30/10:00am 11.1 W 12 15 1009.7 - 0.0 - - - - - - -
30/09:30am 10.7 W 14 17 1009.4 - 0.0 - - - - - - -
30/09:00am 10.8 W 13 17 1009.3 - 5.4 - - - - - - -
30/08:30am 10.2 W 13 17 1009.1 - 5.4 - - - - - - -
30/08:00am 9.7 W 13 18 1009.0 - 5.4 - - - - - - -
30/07:30am 10.0 WSW 17 23 1008.7 - 5.0 - - - - - - -
30/07:17am 10.1 WSW 18 21 1008.7 - 4.8 - - - - - - -
30/07:00am 11.2 WNW 21 25 1008.4 - 4.0 - - - - - - -
30/06:30am 11.1 WNW 21 25 1008.2 - 3.8 - - - - - - -
30/06:00am 11.6 WNW 20 26 1007.8 - 3.0 Recent precip. - - - - - -
30/05:30am 11.5 WNW 21 27 1007.6 - 3.0 - - - - - - -
30/05:00am 11.2 WNW 21 25 1007.4 - 2.8 - - - - - - -
30/04:30am 11.4 WNW 20 26 1007.3 - 2.6 - - - - - - -
30/04:00am 11.5 WNW 21 25 1007.7 - 2.6 - - - - - - -
30/03:30am 11.2 WNW 21 27 1007.8 - 2.6 - - - - - - -
30/03:00am 11.1 WNW 22 26 1007.8 - 2.6 - - - - - - -
30/02:30am 10.9 WNW 23 29 1007.8 - 2.6 - - - - - - -
30/02:00am 11.3 WNW 23 28 1007.9 - 2.6 - - - - - - -
30/01:30am 11.0 WNW 24 35 1007.8 - 2.6 - - - - - - -
30/01:25am 11.4 WNW 23 35 1007.7 - 2.6 - - - - - - -
30/01:00am 11.2 WNW 23 28 1007.9 - 2.6 - - - - - - -
30/12:30am 10.9 WNW 21 26 1008.3 - 2.6 - - - - - - -
30/12:26am 10.9 WNW 23 33 1008.3 - 2.6 - - - - - - -
30/12:12am 11.4 W 23 29 1008.3 - 2.2 - - - - - - -
30/12:00am 11.9 NW 25 31 1008.1 - 2.2 - - - - - - -
 
Date/Time
EDT
Temp

°C
Wind Pressure Rain
since 9am
mm
Weather Cloud Vis
km
Sea
Height
m
Swell
Dir
 
Speed
knots
Gust
knots
hPa Trend Height
m
Period
s
Dir
29/11:30pm 11.8 NW 23 29 1008.4 - 2.2 - - - - - - -
29/11:00pm 11.7 NW 23 28 1008.6 - 2.2 - - - - - - -
29/10:30pm 11.5 WNW 24 29 1008.7 - 2.2 - - - - - - -
29/10:00pm 11.3 WNW 22 28 1008.7 - 2.2 - - - - - - -
29/09:30pm 11.9 NW 25 32 1008.6 - 1.6 - - - - - - -
29/09:00pm 11.9 NW 25 32 1008.5 - 1.6 - - - - - - -
29/08:30pm 11.8 WNW 25 31 1008.5 - 1.6 - - - - - - -
29/08:00pm 11.4 NW 25 31 1008.4 - 1.6 - - - - - - -
29/07:30pm 11.3 NW 26 31 1008.4 - 1.6 - - - - - - -
29/07:00pm 11.6 WNW 27 35 1008.2 - 1.6 - - - - - - -
29/06:39pm 11.5 WNW 29 39 1008.0 - 1.6 - - - - - - -
29/06:30pm 11.7 NW 27 33 1008.0 - 1.4 - - - - - - -
29/06:06pm 12.2 NW 27 37 1007.8 - 0.6 - - - - - - -
29/06:00pm 12.8 NW 28 36 1007.8 - 0.6 - - - - - - -
29/05:30pm 12.9 NW 29 35 1007.9 - 0.6 - - - - - - -

Other Formats:

Comma delimited format used in spreadsheet applications
http://www.bom.gov.au/fwo/IDT60701/IDT60701.95961.axf

JavaScript Object Notation format (JSON) in row-major order
http://www.bom.gov.au/fwo/IDT60701/IDT60701.95961.json